createdAt,value
2022-08-03T00:01:01.753Z,91.6
2022-08-03T00:02:18.059Z,91.6
2022-08-03T00:03:34.334Z,91.3
2022-08-03T00:04:50.643Z,90.9
2022-08-03T00:06:06.931Z,90.7
2022-08-03T00:07:23.235Z,90.5
2022-08-03T00:08:38.553Z,90.4
2022-08-03T00:09:53.848Z,90.6
2022-08-03T00:11:10.156Z,90.5
2022-08-03T00:12:26.450Z,90.4
2022-08-03T00:13:42.727Z,89.7
2022-08-03T00:14:59.024Z,90.2
2022-08-03T00:16:15.323Z,90.1
2022-08-03T00:17:31.622Z,90.2
2022-08-03T00:18:47.909Z,91.1
2022-08-03T00:20:04.205Z,90.8
2022-08-03T00:21:20.506Z,90.6
2022-08-03T00:22:36.804Z,90.5
2022-08-03T00:23:53.084Z,90.2
2022-08-03T00:25:09.388Z,90.5
2022-08-03T00:26:24.702Z,90.6
2022-08-03T00:27:40.988Z,90.2
2022-08-03T00:28:57.283Z,89.9
2022-08-03T00:30:13.568Z,90.1
2022-08-03T00:31:29.878Z,90.4
2022-08-03T00:32:46.159Z,90.6
2022-08-03T00:34:02.469Z,90.4
2022-08-03T00:35:17.771Z,90.2
2022-08-03T00:36:33.091Z,90.5
2022-08-03T00:37:48.395Z,90.5
2022-08-03T00:39:03.716Z,90.7
2022-08-03T00:40:20.010Z,90.4
2022-08-03T00:41:36.304Z,90.4
2022-08-03T00:42:52.590Z,90.4
2022-08-03T00:44:08.899Z,90.6
2022-08-03T00:45:25.176Z,91.4
2022-08-03T00:46:41.488Z,92.1
2022-08-03T00:47:57.781Z,92.6
2022-08-03T00:49:14.075Z,93.7
2022-08-03T00:50:30.354Z,94.2
2022-08-03T00:51:46.659Z,94.8
2022-08-03T00:53:02.950Z,95.4
2022-08-03T00:54:19.242Z,95.8
2022-08-03T00:55:34.560Z,96
2022-08-03T00:56:50.843Z,95.9
2022-08-03T00:58:07.153Z,95.9
2022-08-03T00:59:23.433Z,95.9
2022-08-03T01:00:39.735Z,95.8
2022-08-03T01:01:56.033Z,95.6
2022-08-03T01:03:12.311Z,95.3
2022-08-03T01:04:27.646Z,95
2022-08-03T01:05:42.944Z,95
2022-08-03T01:06:58.257Z,95.2
2022-08-03T01:08:13.579Z,95.2
2022-08-03T01:09:29.874Z,94.9
2022-08-03T01:10:46.163Z,95.3
2022-08-03T01:12:02.464Z,95.8
2022-08-03T01:13:18.738Z,96.2
2022-08-03T01:14:35.038Z,96.8
2022-08-03T01:15:51.340Z,97
2022-08-03T01:17:07.636Z,96.8
2022-08-03T01:18:23.927Z,96.8
2022-08-03T01:19:40.208Z,96.8
2022-08-03T01:20:56.505Z,97
2022-08-03T01:22:12.813Z,97
2022-08-03T01:23:29.105Z,96.8
2022-08-03T01:24:44.400Z,96.3
2022-08-03T01:26:00.704Z,96.2
2022-08-03T01:27:16.992Z,96.1
2022-08-03T01:28:33.303Z,96.1
2022-08-03T01:29:49.579Z,96.3
2022-08-03T01:31:05.883Z,96.2
2022-08-03T01:32:22.174Z,96.1
2022-08-03T01:33:37.490Z,95.4
2022-08-03T01:34:52.787Z,95.1
2022-08-03T01:36:09.098Z,94.9
2022-08-03T01:37:25.380Z,95.2
2022-08-03T01:38:41.678Z,94.6
2022-08-03T01:39:57.971Z,94.8
2022-08-03T01:41:14.265Z,95.2
2022-08-03T01:42:30.549Z,96.2
2022-08-03T01:43:46.844Z,96.6
2022-08-03T01:45:03.143Z,97
2022-08-03T01:46:19.446Z,97.7
2022-08-03T01:47:35.736Z,98.3
2022-08-03T01:48:52.016Z,98.2
2022-08-03T01:50:08.320Z,98.3
2022-08-03T01:51:23.627Z,98.3
2022-08-03T01:52:39.917Z,98.3
2022-08-03T01:53:56.216Z,98
2022-08-03T01:55:12.505Z,97.7
2022-08-03T01:56:28.796Z,97.5
2022-08-03T01:57:45.098Z,97.5
2022-08-03T01:59:01.384Z,97.5
2022-08-03T02:00:16.695Z,97.3
2022-08-03T02:01:32.003Z,97.2
2022-08-03T02:02:47.332Z,97.1
2022-08-03T02:04:02.629Z,97.1
2022-08-03T02:05:17.946Z,97.2
2022-08-03T02:06:33.253Z,97.4
2022-08-03T02:07:49.553Z,97.4
2022-08-03T02:09:04.880Z,97.7
2022-08-03T02:10:20.181Z,98.2
2022-08-03T02:11:36.479Z,98
2022-08-03T02:12:52.764Z,97.7
2022-08-03T02:14:09.062Z,97.4
2022-08-03T02:15:25.362Z,97
2022-08-03T02:16:41.648Z,96.6
2022-08-03T02:17:57.941Z,96
2022-08-03T02:19:14.238Z,95.9
2022-08-03T02:20:30.520Z,95.6
2022-08-03T02:21:46.827Z,95.7
2022-08-03T02:23:03.113Z,95.2
2022-08-03T02:24:19.413Z,95.2
2022-08-03T02:25:35.713Z,94.8
2022-08-03T02:26:51.014Z,94.4
2022-08-03T02:28:07.316Z,94.7
2022-08-03T02:29:23.594Z,94.8
2022-08-03T02:30:39.901Z,95.4
2022-08-03T02:31:56.181Z,96
2022-08-03T02:33:12.491Z,96.6
2022-08-03T02:34:28.768Z,97
2022-08-03T02:35:44.099Z,97.1
2022-08-03T02:36:59.408Z,97.2
2022-08-03T02:38:15.692Z,97.2
2022-08-03T02:39:31.004Z,97.2
2022-08-03T02:40:46.316Z,97
2022-08-03T02:42:02.606Z,96.4
2022-08-03T02:43:18.897Z,96
2022-08-03T02:44:35.194Z,95.7
2022-08-03T02:45:51.491Z,95.3
2022-08-03T02:47:07.789Z,94.9
2022-08-03T02:48:24.090Z,95.4
2022-08-03T02:50:56.680Z,95.4
2022-08-03T02:52:12.967Z,95.7
2022-08-03T02:53:29.265Z,96.2
2022-08-03T02:54:45.557Z,97
2022-08-03T02:56:01.839Z,97.4
2022-08-03T02:57:17.162Z,97.5
2022-08-03T02:58:33.454Z,98
2022-08-03T02:59:49.751Z,98.3
2022-08-03T03:01:06.050Z,98.5
2022-08-03T03:02:22.335Z,98.6
2022-08-03T03:03:38.626Z,98.8
2022-08-03T03:04:54.928Z,99.1
2022-08-03T03:06:11.152Z,99
2022-08-03T03:07:27.460Z,98.8
2022-08-03T03:08:42.731Z,98.7
2022-08-03T03:09:57.985Z,98.7
2022-08-03T03:11:14.356Z,99.1
2022-08-03T03:12:29.683Z,99.1
2022-08-03T03:13:45.971Z,98.9
2022-08-03T03:15:02.270Z,98.7
2022-08-03T03:16:18.513Z,98.6
2022-08-03T03:17:34.802Z,98.5
2022-08-03T03:18:51.067Z,98.3
2022-08-03T03:20:07.305Z,98.1
2022-08-03T03:21:23.544Z,98
2022-08-03T03:22:39.778Z,98
2022-08-03T03:23:56.028Z,98.3
2022-08-03T03:25:12.249Z,98.2
2022-08-03T03:26:28.491Z,97.8
2022-08-03T03:27:44.733Z,97.6
2022-08-03T03:28:59.986Z,97.4
2022-08-03T03:30:16.238Z,97.4
2022-08-03T03:31:32.478Z,97.2
2022-08-03T03:32:48.713Z,97.2
2022-08-03T03:34:04.944Z,97.2
2022-08-03T03:35:21.186Z,97.2
2022-08-03T03:36:37.439Z,97.1
2022-08-03T03:37:52.707Z,97
2022-08-03T03:39:07.948Z,96.9
2022-08-03T03:40:24.191Z,96.9
2022-08-03T03:41:40.440Z,96.9
2022-08-03T03:42:56.674Z,96.9
2022-08-03T03:44:12.919Z,96.7
2022-08-03T03:45:29.161Z,96.7
2022-08-03T03:46:45.409Z,96.5
2022-08-03T03:48:01.646Z,96.6
2022-08-03T03:49:17.885Z,96.9
2022-08-03T03:50:34.125Z,97.1
2022-08-03T03:51:50.363Z,97.7
2022-08-03T03:53:06.606Z,98
2022-08-03T03:54:22.850Z,97.6
2022-08-03T03:55:38.099Z,97.2
2022-08-03T03:56:54.330Z,97
2022-08-03T03:58:10.572Z,97.2
2022-08-03T03:59:26.815Z,97
2022-08-03T04:00:43.066Z,96.7
2022-08-03T04:01:59.293Z,96.6
2022-08-03T04:03:15.534Z,96.6
2022-08-03T04:04:30.791Z,96.5
2022-08-03T04:05:46.057Z,96.5
2022-08-03T04:07:02.296Z,96.6
2022-08-03T04:08:18.543Z,96.6
2022-08-03T04:09:34.781Z,96.7
2022-08-03T04:10:51.007Z,96.7
2022-08-03T04:12:07.263Z,96.8
2022-08-03T04:13:23.485Z,97
2022-08-03T04:14:39.726Z,96.9
2022-08-03T04:15:55.968Z,97.1
2022-08-03T04:17:12.223Z,96.7
2022-08-03T04:18:28.451Z,96.5
2022-08-03T04:19:44.696Z,96.4
2022-08-03T04:21:00.932Z,96.4
2022-08-03T04:22:16.190Z,96.4
2022-08-03T04:23:32.422Z,96.1
2022-08-03T04:24:48.665Z,96.1
2022-08-03T04:26:04.917Z,96
2022-08-03T04:27:21.147Z,95.5
2022-08-03T04:28:37.391Z,95.4
2022-08-03T04:29:53.628Z,95.6
2022-08-03T04:31:08.895Z,95.7
2022-08-03T04:32:24.150Z,95.6
2022-08-03T04:33:40.391Z,95.5
2022-08-03T04:34:56.624Z,95
2022-08-03T04:36:12.877Z,95
2022-08-03T04:37:29.101Z,94.8
2022-08-03T04:38:45.356Z,94.6
2022-08-03T04:40:01.577Z,94.4
2022-08-03T04:42:34.062Z,94.3
2022-08-03T04:43:50.305Z,94.3
2022-08-03T04:45:06.540Z,94.4
2022-08-03T04:46:22.789Z,94.2
2022-08-03T04:47:39.030Z,94
2022-08-03T04:48:54.292Z,93.9
2022-08-03T04:50:10.522Z,93.6
2022-08-03T04:51:26.757Z,93.5
2022-08-03T04:52:43.013Z,93
2022-08-03T04:53:59.253Z,92.4
2022-08-03T04:55:15.486Z,92.4
2022-08-03T04:56:31.729Z,92.1
2022-08-03T04:57:47.966Z,93.1
2022-08-03T04:59:03.231Z,92.9
2022-08-03T05:00:18.492Z,93
2022-08-03T05:01:33.740Z,92.8
2022-08-03T05:02:49.000Z,92.7
2022-08-03T05:04:04.258Z,92.2
2022-08-03T05:05:19.509Z,91.9
2022-08-03T05:06:35.757Z,91
2022-08-03T05:07:51.990Z,91.1
2022-08-03T05:09:08.229Z,91.4
2022-08-03T05:10:24.488Z,91.4
2022-08-03T05:11:40.713Z,90.9
2022-08-03T05:12:56.958Z,90
2022-08-03T05:14:13.203Z,89.7
2022-08-03T05:15:29.443Z,90.2
2022-08-03T05:18:01.926Z,88.8
2022-08-03T05:19:18.150Z,88.6
2022-08-03T05:20:34.401Z,88.4
2022-08-03T05:21:49.656Z,88.4
2022-08-03T05:23:05.885Z,88
2022-08-03T05:24:22.134Z,88.3
2022-08-03T05:25:38.381Z,88.1
2022-08-03T05:26:54.613Z,87.4
2022-08-03T05:28:10.864Z,86.8
2022-08-03T05:29:27.103Z,86
2022-08-03T05:30:43.328Z,86.1
2022-08-03T05:31:58.605Z,86.1
2022-08-03T05:33:13.847Z,85.3
2022-08-03T05:34:30.090Z,85.4
2022-08-03T05:35:46.327Z,86.2
2022-08-03T05:37:02.585Z,85.8
2022-08-03T05:38:18.810Z,87.2
2022-08-03T05:39:35.049Z,86.1
2022-08-03T05:40:51.290Z,86.3
2022-08-03T05:42:07.543Z,86.5
2022-08-03T05:43:23.787Z,85.7
2022-08-03T05:44:40.014Z,85.6
2022-08-03T05:45:56.259Z,85.9
2022-08-03T05:47:12.505Z,85.4
2022-08-03T05:48:28.740Z,85
2022-08-03T05:49:44.007Z,83.5
2022-08-03T05:51:00.234Z,83.5
2022-08-03T05:52:16.488Z,82.8
2022-08-03T05:53:32.724Z,81.9
2022-08-03T05:54:48.956Z,82
2022-08-03T05:56:05.197Z,80.6
2022-08-03T05:57:21.430Z,80.2
2022-08-03T05:58:36.705Z,80.8
2022-08-03T05:59:51.963Z,80.9
2022-08-03T06:01:07.216Z,80.2
2022-08-03T06:02:22.479Z,79.8
2022-08-03T06:03:37.730Z,79.4
2022-08-03T06:04:52.983Z,79.7
2022-08-03T06:06:09.224Z,79.5
2022-08-03T06:07:25.461Z,79.8
2022-08-03T06:08:41.715Z,79.8
2022-08-03T06:09:57.956Z,79
2022-08-03T06:11:14.181Z,78.4
2022-08-03T06:12:30.437Z,78.1
2022-08-03T06:13:46.664Z,78.8
2022-08-03T06:15:02.910Z,79.3
2022-08-03T06:16:19.151Z,78.6
2022-08-03T06:17:35.381Z,77.6
2022-08-03T06:18:51.620Z,77.8
2022-08-03T06:20:07.872Z,77.6
2022-08-03T06:21:23.120Z,77.9
2022-08-03T06:22:39.364Z,78
2022-08-03T06:23:55.613Z,77.9
2022-08-03T06:25:11.850Z,76.9
2022-08-03T06:26:28.090Z,77.6
2022-08-03T06:27:44.000Z,77.1
2022-08-03T06:29:00.563Z,76.8
2022-08-03T06:30:15.838Z,77.1
2022-08-03T06:31:31.077Z,76.5
2022-08-03T06:32:47.331Z,77.4
2022-08-03T06:34:02.576Z,76.7
2022-08-03T06:35:17.844Z,76.7
2022-08-03T06:36:34.070Z,76.4
2022-08-03T06:37:50.320Z,76.1
2022-08-03T06:39:06.557Z,75.9
2022-08-03T06:40:22.795Z,75.8
2022-08-03T06:41:39.035Z,75.6
2022-08-03T06:42:55.278Z,74.3
2022-08-03T06:44:11.517Z,74.2
2022-08-03T06:45:27.746Z,74
2022-08-03T06:46:43.993Z,73.2
2022-08-03T06:48:00.234Z,73.5
2022-08-03T06:49:16.472Z,73.4
2022-08-03T06:50:32.721Z,73
2022-08-03T06:51:47.971Z,72.8
2022-08-03T06:53:04.216Z,72
2022-08-03T06:54:20.450Z,72.7
2022-08-03T06:55:36.683Z,71.7
2022-08-03T06:56:52.922Z,71.3
2022-08-03T06:58:09.180Z,71.3
2022-08-03T06:59:25.407Z,69.5
2022-08-03T07:00:40.674Z,69.2
2022-08-03T07:01:55.922Z,69
2022-08-03T07:03:11.188Z,68.3
2022-08-03T07:04:26.451Z,68.5
2022-08-03T07:05:41.693Z,68
2022-08-03T07:06:56.954Z,68.8
2022-08-03T07:08:13.200Z,67.9
2022-08-03T07:09:29.430Z,68
2022-08-03T07:10:45.687Z,69
2022-08-03T07:12:01.915Z,68.8
2022-08-03T07:13:18.163Z,68.7
2022-08-03T07:14:34.394Z,67.9
2022-08-03T07:15:50.643Z,66
2022-08-03T07:17:06.871Z,65.5
2022-08-03T07:18:23.121Z,65.6
2022-08-03T07:19:39.351Z,64.9
2022-08-03T07:20:55.584Z,66.3
2022-08-03T07:22:11.835Z,63
2022-08-03T07:23:27.085Z,63.7
2022-08-03T07:24:43.316Z,63.5
2022-08-03T07:25:59.567Z,62.4
2022-08-03T07:27:15.802Z,61.9
2022-08-03T07:28:32.035Z,61.4
2022-08-03T07:29:48.272Z,61.8
2022-08-03T07:31:04.526Z,62.3
2022-08-03T07:32:19.768Z,61.1
2022-08-03T07:33:35.027Z,60.9
2022-08-03T07:34:50.295Z,60.9
2022-08-03T07:36:05.542Z,60.6
2022-08-03T07:37:21.778Z,61.2
2022-08-03T07:38:38.016Z,60.9
2022-08-03T07:39:54.266Z,60.8
2022-08-03T07:41:10.495Z,60.3
2022-08-03T07:42:26.732Z,60.4
2022-08-03T07:43:42.986Z,60
2022-08-03T07:44:59.223Z,60
2022-08-03T07:46:15.452Z,60.5
2022-08-03T07:47:31.696Z,59.7
2022-08-03T07:48:47.922Z,59.5
2022-08-03T07:50:04.161Z,59.4
2022-08-03T07:51:20.408Z,60
2022-08-03T07:52:35.660Z,59.3
2022-08-03T07:53:51.000Z,59.4
2022-08-03T07:55:08.143Z,59.1
2022-08-03T07:56:24.382Z,59.4
2022-08-03T07:57:40.629Z,58.5
2022-08-03T07:58:56.865Z,57.6
2022-08-03T08:00:13.108Z,58.2
2022-08-03T08:01:28.358Z,56.3
2022-08-03T08:02:43.619Z,56.4
2022-08-03T08:03:58.871Z,56.7
2022-08-03T08:05:14.123Z,55.8
2022-08-03T08:06:30.371Z,55.8
2022-08-03T08:07:46.609Z,55.9
2022-08-03T08:09:02.838Z,56.5
2022-08-03T08:10:19.074Z,57.1
2022-08-03T08:11:35.316Z,56.2
2022-08-03T08:12:51.564Z,56.4
2022-08-03T08:14:07.786Z,55.2
2022-08-03T08:15:24.042Z,56
2022-08-03T08:16:40.281Z,55.4
2022-08-03T08:17:56.508Z,56.1
2022-08-03T08:19:12.755Z,53.6
2022-08-03T08:20:28.982Z,53.1
2022-08-03T08:21:44.236Z,53.5
2022-08-03T08:23:00.471Z,54.1
2022-08-03T08:24:16.710Z,55
2022-08-03T08:25:32.949Z,54
2022-08-03T08:26:49.197Z,54.1
2022-08-03T08:28:05.422Z,53.1
2022-08-03T08:29:21.672Z,52.1
2022-08-03T08:30:36.927Z,50.8
2022-08-03T08:31:52.182Z,51.3
2022-08-03T08:33:07.450Z,52.2
2022-08-03T08:34:22.690Z,52.2
2022-08-03T08:35:38.933Z,51.6
2022-08-03T08:36:54.202Z,51.6
2022-08-03T08:38:09.449Z,51.8
2022-08-03T08:39:25.691Z,51.2
2022-08-03T08:40:41.938Z,52
2022-08-03T08:41:58.175Z,52
2022-08-03T08:43:14.411Z,51
2022-08-03T08:44:30.642Z,51.4
2022-08-03T08:45:46.886Z,50.6
2022-08-03T08:47:03.124Z,51
2022-08-03T08:48:19.356Z,51
2022-08-03T08:49:35.597Z,50.3
2022-08-03T08:50:51.841Z,50.4
2022-08-03T08:52:08.070Z,51.3
2022-08-03T08:53:24.324Z,48.9
2022-08-03T08:54:39.568Z,49.7
2022-08-03T08:55:55.813Z,49.2
2022-08-03T08:57:12.042Z,48.8
2022-08-03T08:58:28.283Z,49.1
2022-08-03T08:59:44.521Z,48.8
2022-08-03T09:01:00.771Z,49.5
2022-08-03T09:02:17.012Z,49.4
2022-08-03T09:03:32.269Z,50.8
2022-08-03T09:04:47.524Z,50
2022-08-03T09:06:03.761Z,50.2
2022-08-03T09:07:19.026Z,48.1
2022-08-03T09:08:34.272Z,46.5
2022-08-03T09:09:50.506Z,49.7
2022-08-03T09:11:06.763Z,48.4
2022-08-03T09:12:22.992Z,48.5
2022-08-03T09:13:39.222Z,47.7
2022-08-03T09:14:55.480Z,47
2022-08-03T09:16:11.711Z,45.6
2022-08-03T09:17:27.946Z,46.2
2022-08-03T09:18:44.192Z,46.2
2022-08-03T09:20:00.431Z,46
2022-08-03T09:21:16.658Z,45.6
2022-08-03T09:22:32.907Z,46.7
2022-08-03T09:23:49.154Z,46.4
2022-08-03T09:25:04.399Z,46.8
2022-08-03T09:26:20.634Z,45.6
2022-08-03T09:27:36.878Z,45.8
2022-08-03T09:28:53.124Z,46.6
2022-08-03T09:30:09.360Z,45.5
2022-08-03T09:31:25.601Z,45.6
2022-08-03T09:32:41.842Z,44.4
2022-08-03T09:33:57.101Z,44.5
2022-08-03T09:35:12.343Z,44.4
2022-08-03T09:36:28.590Z,44.6
2022-08-03T09:37:44.823Z,43.6
2022-08-03T09:39:01.059Z,44
2022-08-03T09:40:17.299Z,44.7
2022-08-03T09:41:33.543Z,42.6
2022-08-03T09:42:49.778Z,42.8
2022-08-03T09:44:06.014Z,41.7
2022-08-03T09:45:22.256Z,42.3
2022-08-03T09:46:38.502Z,42.5
2022-08-03T09:49:10.986Z,41
2022-08-03T09:50:27.209Z,42
2022-08-03T09:51:42.468Z,42.1
2022-08-03T09:52:58.707Z,41
2022-08-03T09:54:14.961Z,41.7
2022-08-03T09:55:31.200Z,41
2022-08-03T09:56:47.423Z,41.1
2022-08-03T09:58:03.662Z,41.6
2022-08-03T09:59:19.907Z,41.4
2022-08-03T10:00:36.157Z,42.5
2022-08-03T10:01:51.420Z,42.7
2022-08-03T10:03:06.667Z,41.8
2022-08-03T10:04:21.935Z,40.9
2022-08-03T10:05:37.185Z,41
2022-08-03T10:06:53.417Z,44.8
2022-08-03T10:08:09.654Z,44.2
2022-08-03T10:09:25.891Z,41.1
2022-08-03T10:10:42.140Z,41.3
2022-08-03T10:11:58.387Z,40.5
2022-08-03T10:13:14.609Z,41.1
2022-08-03T10:14:30.868Z,40.8
2022-08-03T10:15:47.088Z,41.2
2022-08-03T10:17:03.338Z,40.5
2022-08-03T10:18:19.566Z,40.5
2022-08-03T10:19:35.819Z,40.3
2022-08-03T10:20:52.051Z,40.5
2022-08-03T10:22:07.302Z,40.3
2022-08-03T10:23:23.542Z,40.2
2022-08-03T10:24:39.795Z,39.7
2022-08-03T10:25:56.038Z,39.7
2022-08-03T10:27:12.262Z,39.7
2022-08-03T10:28:28.507Z,40.3
2022-08-03T10:29:44.759Z,40.8
2022-08-03T10:31:00.004Z,40.4
2022-08-03T10:32:15.271Z,40.1
2022-08-03T10:33:30.529Z,40
2022-08-03T10:34:45.788Z,38.9
2022-08-03T10:36:02.024Z,39
2022-08-03T10:37:18.263Z,38.3
2022-08-03T10:38:34.495Z,38.2
2022-08-03T10:39:50.746Z,37.6
2022-08-03T10:41:06.987Z,37.8
2022-08-03T10:42:23.219Z,37.9
2022-08-03T10:43:39.463Z,38
2022-08-03T10:44:55.706Z,37.3
2022-08-03T10:46:11.935Z,38
2022-08-03T10:47:28.186Z,36.9
2022-08-03T10:48:44.427Z,37.4
2022-08-03T10:50:00.655Z,36.8
2022-08-03T10:51:15.919Z,37.1
2022-08-03T10:52:32.153Z,37.5
2022-08-03T10:53:47.418Z,37.6
2022-08-03T10:55:02.688Z,37.4
2022-08-03T10:56:18.913Z,37.6
2022-08-03T10:57:35.151Z,36
2022-08-03T10:58:51.408Z,37.4
2022-08-03T11:00:07.637Z,37.1
2022-08-03T11:01:23.877Z,37.5
2022-08-03T11:02:40.117Z,37.3
2022-08-03T11:03:56.353Z,36.4
2022-08-03T11:05:12.609Z,35.8
2022-08-03T11:06:28.839Z,35.8
2022-08-03T11:07:45.087Z,35.1
2022-08-03T11:09:01.329Z,35.4
2022-08-03T11:10:17.553Z,35.6
2022-08-03T11:11:32.821Z,36.2
2022-08-03T11:12:49.057Z,35.5
2022-08-03T11:14:05.304Z,35.8
2022-08-03T11:15:21.541Z,34.5
2022-08-03T11:16:37.770Z,34.6
2022-08-03T11:17:54.010Z,37
2022-08-03T11:19:10.245Z,35.8
2022-08-03T11:20:25.508Z,34
2022-08-03T11:21:40.775Z,35.4
2022-08-03T11:22:56.040Z,33.3
2022-08-03T11:24:11.293Z,32.4
2022-08-03T11:25:27.526Z,31.9
2022-08-03T11:26:43.775Z,33
2022-08-03T11:28:00.004Z,33.7
2022-08-03T11:29:16.244Z,33.6
2022-08-03T11:30:32.490Z,33.6
2022-08-03T11:31:48.738Z,32.7
2022-08-03T11:33:04.971Z,31.1
2022-08-03T11:34:21.208Z,33.3
2022-08-03T11:35:37.463Z,32.7
2022-08-03T11:36:53.695Z,31.6
2022-08-03T11:38:09.926Z,31
2022-08-03T11:39:26.172Z,30.5
2022-08-03T11:40:41.433Z,30.4
2022-08-03T11:41:57.674Z,30.8
2022-08-03T11:43:13.910Z,31.5
2022-08-03T11:44:30.146Z,31.2
2022-08-03T11:45:46.377Z,31.8
2022-08-03T11:47:02.625Z,32.4
2022-08-03T11:48:18.856Z,33.7
2022-08-03T11:49:34.121Z,33.4
2022-08-03T11:50:49.371Z,33.2
2022-08-03T11:52:05.627Z,31.1
2022-08-03T11:53:21.855Z,33.6
2022-08-03T11:54:38.093Z,33.3
2022-08-03T11:55:54.336Z,34.1
2022-08-03T11:57:10.569Z,30.5
2022-08-03T11:58:26.815Z,29.4
2022-08-03T11:59:43.046Z,31.8
2022-08-03T12:00:59.295Z,29.4
2022-08-03T12:02:15.528Z,30.1
2022-08-03T12:03:31.766Z,30.6
2022-08-03T12:04:48.003Z,30.5
2022-08-03T12:06:04.251Z,30.7
2022-08-03T12:07:19.504Z,31.4
2022-08-03T12:08:35.756Z,33.9
2022-08-03T12:09:51.989Z,30.9
2022-08-03T12:11:08.234Z,30
2022-08-03T12:12:24.478Z,31.1
2022-08-03T12:13:40.698Z,29.9
2022-08-03T12:14:56.955Z,32.2
2022-08-03T12:16:12.199Z,30.6
2022-08-03T12:17:27.458Z,29.2
2022-08-03T12:18:42.726Z,29.8
2022-08-03T12:19:57.985Z,30.7
2022-08-03T12:21:14.216Z,31.3
2022-08-03T12:22:30.462Z,31
2022-08-03T12:23:46.689Z,28.6
2022-08-03T12:25:02.934Z,29.9
2022-08-03T12:26:19.174Z,29.6
2022-08-03T12:27:35.419Z,29.6
2022-08-03T12:28:51.660Z,30.1
2022-08-03T12:30:07.892Z,31.1
2022-08-03T12:31:24.125Z,31.4
2022-08-03T12:32:40.363Z,32.5
2022-08-03T12:33:56.619Z,31.2
2022-08-03T12:35:12.845Z,29.6
2022-08-03T12:36:28.114Z,32.1
2022-08-03T12:37:44.355Z,29.4
2022-08-03T12:39:00.586Z,29.7
2022-08-03T12:40:16.825Z,31.8
2022-08-03T12:41:33.071Z,29.1
2022-08-03T12:42:49.302Z,29.5
2022-08-03T12:44:05.541Z,29.5
2022-08-03T12:45:20.812Z,28.6
2022-08-03T12:46:36.069Z,28.5
2022-08-03T12:47:51.324Z,28.6
2022-08-03T12:49:06.569Z,28.7
2022-08-03T12:50:21.847Z,28.2
2022-08-03T12:51:37.099Z,28.1
2022-08-03T12:52:52.356Z,28
2022-08-03T12:54:07.603Z,29.2
2022-08-03T12:55:23.845Z,29.2
2022-08-03T12:56:40.081Z,28.5
2022-08-03T12:57:56.327Z,29.7
2022-08-03T12:59:12.564Z,29.1
2022-08-03T13:00:28.807Z,30.6
2022-08-03T13:01:45.048Z,29.6
2022-08-03T13:03:01.291Z,28.3
2022-08-03T13:04:17.527Z,28.4
2022-08-03T13:05:33.774Z,29.1
2022-08-03T13:06:50.008Z,28.1
2022-08-03T13:08:06.241Z,28.5
2022-08-03T13:09:22.491Z,28.3
2022-08-03T13:10:37.732Z,28
2022-08-03T13:13:10.209Z,27.8
2022-08-03T13:14:26.461Z,28.2
2022-08-03T13:15:42.705Z,27.7
2022-08-03T13:16:58.944Z,28.5
2022-08-03T13:18:15.173Z,28.5
2022-08-03T13:19:31.419Z,28.5
2022-08-03T13:20:46.674Z,28.6
2022-08-03T13:22:01.941Z,26.8
2022-08-03T13:23:17.196Z,26.7
2022-08-03T13:24:32.447Z,28.6
2022-08-03T13:25:48.700Z,26
2022-08-03T13:27:04.929Z,26.5
2022-08-03T13:28:21.161Z,27.4
2022-08-03T13:29:37.406Z,26.6
2022-08-03T13:30:53.646Z,27
2022-08-03T13:32:09.889Z,27.6
2022-08-03T13:33:26.131Z,28.1
2022-08-03T13:34:42.371Z,29.8
2022-08-03T13:35:58.605Z,27.2
2022-08-03T13:37:14.849Z,27.7
2022-08-03T13:38:31.085Z,28.8
2022-08-03T13:39:47.316Z,26.8
2022-08-03T13:41:02.582Z,25.7
2022-08-03T13:42:18.817Z,26.8
2022-08-03T13:43:35.069Z,25.3
2022-08-03T13:44:51.304Z,28.4
2022-08-03T13:46:07.543Z,25.9
2022-08-03T13:47:23.789Z,26.3
2022-08-03T13:48:40.011Z,27.7
2022-08-03T13:49:55.280Z,28
2022-08-03T13:51:10.547Z,26
2022-08-03T13:52:26.788Z,27.5
2022-08-03T13:53:43.019Z,27
2022-08-03T13:54:59.262Z,27.4
2022-08-03T13:56:15.499Z,26.3
2022-08-03T13:57:31.735Z,26.4
2022-08-03T13:58:47.968Z,26.7
2022-08-03T14:00:04.208Z,28.7
2022-08-03T14:01:20.460Z,27.3
2022-08-03T14:02:36.699Z,26.6
2022-08-03T14:03:52.948Z,28
2022-08-03T14:05:09.168Z,26.8
2022-08-03T14:06:25.415Z,26.2
2022-08-03T14:07:40.673Z,25.8
2022-08-03T14:08:56.000Z,26
2022-08-03T14:10:13.163Z,26.7
2022-08-03T14:11:29.390Z,25.2
2022-08-03T14:12:45.625Z,25.6
2022-08-03T14:14:01.872Z,25.7
2022-08-03T14:15:18.114Z,26.1
2022-08-03T14:16:33.365Z,26.3
2022-08-03T14:17:48.621Z,26.8
2022-08-03T14:19:03.890Z,26.1
2022-08-03T14:20:19.139Z,26.9
2022-08-03T14:21:35.000Z,26.3
2022-08-03T14:22:51.620Z,26
2022-08-03T14:24:07.867Z,25.4
2022-08-03T14:25:24.101Z,25.5
2022-08-03T14:26:40.339Z,26.5
2022-08-03T14:27:56.575Z,25.9
2022-08-03T14:29:12.832Z,26.2
2022-08-03T14:30:29.071Z,25.7
2022-08-03T14:31:45.300Z,25.6
2022-08-03T14:33:01.537Z,25.3
2022-08-03T14:34:17.784Z,24.9
2022-08-03T14:35:34.031Z,24.9
2022-08-03T14:36:49.276Z,25.1
2022-08-03T14:38:05.521Z,25.3
2022-08-03T14:39:21.752Z,25
2022-08-03T14:40:37.995Z,24.9
2022-08-03T14:41:54.243Z,25.1
2022-08-03T14:43:10.474Z,25
2022-08-03T14:44:26.718Z,25.6
2022-08-03T14:45:41.979Z,25.3
2022-08-03T14:46:57.231Z,25
2022-08-03T14:48:12.498Z,24.5
2022-08-03T14:49:27.750Z,24.1
2022-08-03T14:50:43.990Z,23.4
2022-08-03T14:52:00.232Z,25.9
2022-08-03T14:53:16.473Z,25.1
2022-08-03T14:54:32.715Z,24.8
2022-08-03T14:55:48.960Z,25.7
2022-08-03T14:57:05.202Z,25.6
2022-08-03T14:58:21.441Z,25.6
2022-08-03T14:59:37.687Z,26
2022-08-03T15:00:53.924Z,26.4
2022-08-03T15:02:10.149Z,27.1
2022-08-03T15:03:26.387Z,26
2022-08-03T15:04:42.643Z,25.7
2022-08-03T15:05:57.883Z,25.8
2022-08-03T15:07:14.133Z,25
2022-08-03T15:08:30.370Z,24.6
2022-08-03T15:09:46.619Z,24.9
2022-08-03T15:11:02.862Z,24.8
2022-08-03T15:12:19.086Z,24.7
2022-08-03T15:13:35.325Z,26.5
2022-08-03T15:14:50.587Z,24.3
2022-08-03T15:16:05.862Z,23.8
2022-08-03T15:17:21.105Z,24.4
2022-08-03T15:18:36.361Z,23.9
2022-08-03T15:19:51.634Z,24.4
2022-08-03T15:21:06.883Z,25.3
2022-08-03T15:22:23.125Z,24.5
2022-08-03T15:23:39.377Z,25.2
2022-08-03T15:24:55.618Z,25
2022-08-03T15:26:11.859Z,25.1
2022-08-03T15:27:28.090Z,24.6
2022-08-03T15:28:44.324Z,25.4
2022-08-03T15:30:00.577Z,24.9
2022-08-03T15:31:16.806Z,25.5
2022-08-03T15:32:33.049Z,24.2
2022-08-03T15:33:49.289Z,24.4
2022-08-03T15:35:05.531Z,24.4
2022-08-03T15:36:21.782Z,24.2
2022-08-03T15:37:37.027Z,25.2
2022-08-03T15:38:53.267Z,25.1
2022-08-03T15:40:09.502Z,25.4
2022-08-03T15:41:25.755Z,25.8
2022-08-03T15:42:41.990Z,26.6
2022-08-03T15:43:58.233Z,25.8
2022-08-03T15:45:14.478Z,26.4
2022-08-03T15:46:29.728Z,25.4
2022-08-03T15:47:44.981Z,26.2
2022-08-03T15:49:01.222Z,26.4
2022-08-03T15:50:16.487Z,26.4
2022-08-03T15:51:31.755Z,25.8
2022-08-03T15:52:47.997Z,26.2
2022-08-03T15:54:04.232Z,27
2022-08-03T15:55:20.466Z,25.9
2022-08-03T15:56:36.711Z,25.3
2022-08-03T15:57:52.945Z,26.7
2022-08-03T15:59:09.192Z,28
2022-08-03T16:00:25.425Z,26.4
2022-08-03T16:01:41.669Z,25.8
2022-08-03T16:02:57.910Z,26.1
2022-08-03T16:04:14.155Z,25.3
2022-08-03T16:05:30.379Z,27
2022-08-03T16:06:46.623Z,28.1
2022-08-03T16:08:01.895Z,27.6
2022-08-03T16:09:18.135Z,27
2022-08-03T16:10:34.369Z,28.5
2022-08-03T16:11:50.616Z,28.9
2022-08-03T16:13:06.000Z,26.8
2022-08-03T16:14:23.082Z,25.7
2022-08-03T16:15:39.328Z,26.7
2022-08-03T16:16:54.593Z,26.5
2022-08-03T16:18:09.852Z,28.7
2022-08-03T16:19:26.085Z,31
2022-08-03T16:20:42.317Z,34.9
2022-08-03T16:21:57.591Z,27.8
2022-08-03T16:23:13.833Z,28.6
2022-08-03T16:24:30.064Z,30.3
2022-08-03T16:25:46.305Z,30.8
2022-08-03T16:27:02.551Z,27.1
2022-08-03T16:28:18.778Z,27.7
2022-08-03T16:29:35.025Z,26.9
2022-08-03T16:30:51.273Z,31.1
2022-08-03T16:32:07.511Z,34.8
2022-08-03T16:33:23.752Z,30.2
2022-08-03T16:34:39.990Z,30.9
2022-08-03T16:35:56.219Z,34.6
2022-08-03T16:37:12.457Z,28.8
2022-08-03T16:38:27.726Z,34.3
2022-08-03T16:39:43.960Z,36.5
2022-08-03T16:41:00.204Z,34.7
2022-08-03T16:42:16.444Z,35.8
2022-08-03T16:43:31.694Z,37.4
2022-08-03T16:44:46.951Z,34.8
2022-08-03T16:46:02.207Z,38.6
2022-08-03T16:47:17.467Z,35.9
2022-08-03T16:48:32.728Z,29.2
2022-08-03T16:49:47.966Z,29.6
2022-08-03T16:51:03.238Z,28.6
2022-08-03T16:52:18.503Z,28.4
2022-08-03T16:53:34.727Z,26.9
2022-08-03T16:54:50.966Z,30.7
2022-08-03T16:56:07.209Z,29.3
2022-08-03T16:57:23.452Z,29.5
2022-08-03T16:58:39.689Z,26.5
2022-08-03T16:59:55.925Z,27
2022-08-03T17:01:12.171Z,26.8
2022-08-03T17:02:28.417Z,32.1
2022-08-03T17:03:44.646Z,33.8
2022-08-03T17:05:00.886Z,33.3
2022-08-03T17:06:17.128Z,36
2022-08-03T17:07:33.370Z,30.4